Time;durP1;ratioP1;P1;durP2;ratioP2;P2;SDS_P1;SDS_P2;PMS_P1;PMS_P2;Temp;Humidity;BMP_temperature;BMP_pressure;BME280_temperature;BME280_humidity;BME280_pressure;Samples;Min_cycle;Max_cycle;Signal;HPM_P1;HPM_P2
2023/06/06 00:01:51;;;;;;;7.43;2.03;;;12.50;99.90;;;;;;4996555;28;20076;-71
2023/06/06 00:04:17;;;;;;;7.13;2.50;;;12.40;99.90;;;;;;4991671;28;20034;-72
2023/06/06 00:06:44;;;;;;;4.90;2.25;;;12.40;99.90;;;;;;4995355;28;20506;-71
2023/06/06 00:09:10;;;;;;;5.90;2.13;;;12.40;99.90;;;;;;4995332;28;20121;-75
2023/06/06 00:11:39;;;;;;;7.43;2.95;;;12.40;99.90;;;;;;4989115;28;20031;-70
2023/06/06 00:14:09;;;;;;;6.13;2.35;;;12.30;99.90;;;;;;4990875;28;20399;-72
2023/06/06 00:16:41;;;;;;;7.22;2.45;;;12.30;99.90;;;;;;5000893;28;20081;-72
2023/06/06 00:19:06;;;;;;;6.43;2.53;;;12.30;99.90;;;;;;4997179;28;20039;-71
2023/06/06 00:21:32;;;;;;;7.10;2.72;;;12.30;99.90;;;;;;4996782;28;20034;-71
2023/06/06 00:23:59;;;;;;;4.80;2.65;;;12.20;99.90;;;;;;4995940;28;20030;-71
2023/06/06 00:26:28;;;;;;;9.05;2.78;;;12.20;99.90;;;;;;4998715;28;20521;-72
2023/06/06 00:28:54;;;;;;;8.85;2.58;;;12.20;99.90;;;;;;5027746;28;20042;-72
2023/06/06 00:31:22;;;;;;;7.82;2.90;;;12.20;99.90;;;;;;5002296;28;20022;-73
2023/06/06 00:33:48;;;;;;;5.15;2.78;;;12.20;99.90;;;;;;5003053;28;20030;-73
2023/06/06 00:36:16;;;;;;;9.55;2.95;;;12.10;99.90;;;;;;4998808;28;20121;-72
2023/06/06 00:38:42;;;;;;;9.25;2.78;;;12.10;99.90;;;;;;4998812;28;20478;-71
2023/06/06 00:41:11;;;;;;;10.40;2.58;;;12.00;99.90;;;;;;5000842;28;20502;-71
2023/06/06 00:43:37;;;;;;;10.77;3.17;;;12.00;99.90;;;;;;5001675;28;20034;-73
2023/06/06 00:46:03;;;;;;;8.02;2.90;;;12.00;99.90;;;;;;4991984;28;20352;-72
2023/06/06 00:48:28;;;;;;;10.40;2.80;;;11.90;99.90;;;;;;4998163;28;20050;-72
2023/06/06 00:51:00;;;;;;;5.78;2.83;;;12.00;99.90;;;;;;4993731;28;20037;-73
2023/06/06 00:53:29;;;;;;;10.70;3.63;;;12.00;99.90;;;;;;4995941;28;20041;-72
2023/06/06 00:56:01;;;;;;;10.48;3.30;;;12.00;99.90;;;;;;4995880;28;20053;-71
2023/06/06 00:58:30;;;;;;;7.80;2.80;;;12.00;99.90;;;;;;5000286;28;20049;-72
2023/06/06 01:01:01;;;;;;;8.20;3.05;;;11.90;99.90;;;;;;4989242;28;20108;-71
2023/06/06 01:03:29;;;;;;;7.43;2.70;;;11.90;99.90;;;;;;4995774;28;20402;-72
2023/06/06 01:05:58;;;;;;;5.97;2.42;;;11.90;99.90;;;;;;4994985;28;20030;-72
2023/06/06 01:08:24;;;;;;;5.15;2.58;;;11.90;99.90;;;;;;5003122;28;20445;-71
2023/06/06 01:11:06;;;;;;;10.32;2.38;;;11.90;99.90;;;;;;4992155;28;20080;-72
2023/06/06 01:13:42;;;;;;;5.63;2.35;;;11.90;99.90;;;;;;4991020;28;20116;-71
2023/06/06 01:16:17;;;;;;;7.60;2.50;;;11.80;99.90;;;;;;4998222;28;20036;-73
2023/06/06 01:18:48;;;;;;;6.07;2.28;;;11.80;99.90;;;;;;4994144;28;20030;-71
2023/06/06 01:21:14;;;;;;;;;;;11.80;99.90;;;;;;5001833;28;20091;-72
2023/06/06 01:23:43;;;;;;;7.90;2.50;;;11.80;99.90;;;;;;4995435;28;20275;-71
2023/06/06 01:26:10;;;;;;;9.07;2.55;;;11.80;99.90;;;;;;4999512;28;20022;-71
2023/06/06 01:28:39;;;;;;;6.22;2.72;;;11.70;99.90;;;;;;4999336;28;20437;-71
2023/06/06 01:31:11;;;;;;;7.70;3.10;;;11.70;99.90;;;;;;4993669;28;20053;-71
2023/06/06 01:33:40;;;;;;;8.85;2.30;;;11.70;99.90;;;;;;4998980;28;20134;-72
2023/06/06 01:36:37;;;;;;;7.55;2.22;;;11.70;99.90;;;;;;4994367;28;20141;-70
2023/06/06 01:39:15;;;;;;;4.28;2.00;;;11.70;99.90;;;;;;4993410;28;20061;-70
2023/06/06 01:41:41;;;;;;;5.18;2.67;;;11.60;99.90;;;;;;5000339;28;20123;-71
2023/06/06 01:44:08;;;;;;;7.25;2.60;;;11.60;99.90;;;;;;5005579;28;20121;-71
2023/06/06 01:46:38;;;;;;;6.38;2.08;;;11.60;99.90;;;;;;5000768;28;20037;-71
2023/06/06 01:49:04;;;;;;;6.75;3.35;;;11.60;99.90;;;;;;4990957;28;20119;-73
2023/06/06 01:51:33;;;;;;;6.45;2.13;;;11.60;99.90;;;;;;4995173;28;20053;-72
2023/06/06 01:54:01;;;;;;;6.03;2.15;;;11.60;99.90;;;;;;5002873;28;20139;-72
2023/06/06 01:56:33;;;;;;;5.63;2.28;;;11.50;99.90;;;;;;4998828;28;20044;-70
2023/06/06 01:59:02;;;;;;;10.00;2.47;;;11.60;99.90;;;;;;5022881;28;20117;-71
2023/06/06 02:01:30;;;;;;;6.18;2.17;;;11.60;99.90;;;;;;4997587;28;20054;-71
2023/06/06 02:03:56;;;;;;;7.03;2.03;;;11.50;99.90;;;;;;4992219;28;20057;-70
2023/06/06 02:06:24;;;;;;;4.95;2.30;;;11.50;99.90;;;;;;4992300;28;20079;-72
2023/06/06 02:08:53;;;;;;;6.47;2.70;;;11.50;99.90;;;;;;4998132;28;20034;-71
2023/06/06 02:11:18;;;;;;;7.03;2.42;;;11.50;99.90;;;;;;4992780;28;20080;-72
2023/06/06 02:13:51;;;;;;;6.07;2.45;;;11.50;99.90;;;;;;4994553;28;20035;-72
2023/06/06 02:16:17;;;;;;;4.13;2.38;;;11.50;99.90;;;;;;4997958;28;20037;-71
2023/06/06 02:18:44;;;;;;;4.47;2.47;;;11.50;99.90;;;;;;4994545;28;20088;-71
2023/06/06 02:21:12;;;;;;;4.53;2.03;;;11.40;99.90;;;;;;4995038;28;20054;-73
2023/06/06 02:23:37;;;;;;;4.38;2.42;;;11.40;99.90;;;;;;4995034;28;20860;-71
2023/06/06 02:26:06;;;;;;;7.43;2.70;;;11.40;99.90;;;;;;4991140;28;20118;-72
2023/06/06 02:28:34;;;;;;;6.35;2.22;;;11.40;99.90;;;;;;5022350;28;20033;-72
2023/06/06 02:31:14;;;;;;;7.95;2.83;;;11.40;99.90;;;;;;5023453;28;20394;-72
2023/06/06 02:33:40;;;;;;;4.82;2.90;;;11.40;99.90;;;;;;4996370;28;20045;-73
2023/06/06 02:36:06;;;;;;;5.38;2.10;;;11.40;99.90;;;;;;4992220;28;20042;-71
2023/06/06 02:38:31;;;;;;;4.80;2.65;;;11.30;99.90;;;;;;4996540;28;20117;-71
2023/06/06 02:40:57;;;;;;;5.70;2.20;;;11.30;99.90;;;;;;4993626;28;20109;-72
2023/06/06 02:43:23;;;;;;;6.43;2.33;;;11.30;99.90;;;;;;4999464;28;20026;-71
2023/06/06 02:45:48;;;;;;;6.07;1.88;;;11.30;99.90;;;;;;4991112;28;20030;-73
2023/06/06 02:48:14;;;;;;;4.60;2.10;;;11.30;99.90;;;;;;4986383;28;20027;-71
2023/06/06 02:50:39;;;;;;;5.47;2.47;;;11.20;99.90;;;;;;4997056;28;20037;-73
2023/06/06 02:53:06;;;;;;;6.45;2.17;;;11.30;99.90;;;;;;4996179;28;20096;-72
2023/06/06 02:55:31;;;;;;;7.47;2.13;;;11.20;99.90;;;;;;5000547;28;20043;-72
2023/06/06 02:58:01;;;;;;;7.30;2.42;;;11.30;99.90;;;;;;4992875;28;20046;-72
2023/06/06 03:00:26;;;;;;;3.60;2.10;;;11.20;99.90;;;;;;4999018;28;20042;-71
2023/06/06 03:02:52;;;;;;;5.75;2.28;;;11.20;99.90;;;;;;4992619;28;20407;-72
2023/06/06 03:05:17;;;;;;;7.13;2.20;;;11.20;99.90;;;;;;5001349;28;20098;-73
2023/06/06 03:07:43;;;;;;;6.47;2.72;;;11.20;99.90;;;;;;4995990;28;20062;-71
2023/06/06 03:10:09;;;;;;;5.97;2.03;;;11.20;99.90;;;;;;4998492;28;20453;-72
2023/06/06 03:12:35;;;;;;;5.28;2.03;;;11.10;99.90;;;;;;5028135;28;20034;-71
2023/06/06 03:15:00;;;;;;;3.92;2.08;;;11.10;99.90;;;;;;4994858;28;20380;-72
2023/06/06 03:17:32;;;;;;;7.93;2.53;;;11.20;99.90;;;;;;5005704;28;20037;-71
2023/06/06 03:20:07;;;;;;;7.85;1.98;;;11.20;99.90;;;;;;5000409;28;20080;-71
2023/06/06 03:22:33;;;;;;;5.07;1.88;;;11.20;99.90;;;;;;4995864;28;20046;-72
2023/06/06 03:24:58;;;;;;;5.57;2.20;;;11.10;99.90;;;;;;5003208;28;20030;-71
2023/06/06 03:27:26;;;;;;;7.57;1.92;;;11.10;99.90;;;;;;5007802;28;20121;-72
2023/06/06 03:29:53;;;;;;;8.77;2.25;;;11.20;99.90;;;;;;4998358;28;20030;-71
2023/06/06 03:32:19;;;;;;;5.82;2.60;;;11.10;99.90;;;;;;4994240;28;20034;-72
2023/06/06 03:34:44;;;;;;;3.75;1.50;;;11.10;99.90;;;;;;4996049;28;20380;-71
2023/06/06 03:37:10;;;;;;;8.00;2.22;;;11.20;99.90;;;;;;4996220;28;20038;-72
2023/06/06 03:39:36;;;;;;;6.43;2.55;;;11.20;99.90;;;;;;5004809;28;20045;-71
2023/06/06 03:42:01;;;;;;;6.03;2.03;;;11.20;99.90;;;;;;5003435;28;20534;-72
2023/06/06 03:44:27;;;;;;;5.53;2.17;;;11.20;99.90;;;;;;4999443;28;20046;-72
2023/06/06 03:46:52;;;;;;;4.20;2.00;;;11.20;99.90;;;;;;5000172;28;20483;-71
2023/06/06 03:49:18;;;;;;;8.93;2.35;;;11.20;99.90;;;;;;4998461;28;20773;-72
2023/06/06 03:51:47;;;;;;;6.03;1.92;;;11.20;99.90;;;;;;5000472;28;20118;-72
2023/06/06 03:54:15;;;;;;;5.72;1.90;;;11.20;99.90;;;;;;4996949;28;20403;-71
2023/06/06 03:56:42;;;;;;;6.03;2.08;;;11.20;99.90;;;;;;4993196;28;20042;-72
2023/06/06 03:59:11;;;;;;;7.95;2.47;;;11.20;99.90;;;;;;5001109;28;20031;-72
2023/06/06 04:01:40;;;;;;;9.90;2.20;;;11.30;99.90;;;;;;5001033;28;20402;-70
2023/06/06 04:04:06;;;;;;;8.68;2.50;;;11.30;99.90;;;;;;4994704;28;20153;-71
2023/06/06 04:06:32;;;;;;;6.45;2.28;;;11.30;99.90;;;;;;5000356;28;20175;-71
2023/06/06 04:08:58;;;;;;;7.15;2.28;;;11.30;99.90;;;;;;5004009;28;20053;-71
2023/06/06 04:11:29;;;;;;;7.07;2.20;;;11.30;99.90;;;;;;4995459;28;20490;-72
2023/06/06 04:14:04;;;;;;;4.65;2.20;;;11.30;99.90;;;;;;4988512;28;20505;-72
2023/06/06 04:16:30;;;;;;;5.15;2.13;;;11.40;99.90;;;;;;4999289;28;20041;-71
2023/06/06 04:18:55;;;;;;;8.27;2.42;;;11.40;99.90;;;;;;4998455;28;20030;-71
2023/06/06 04:21:21;;;;;;;5.40;2.08;;;11.50;99.90;;;;;;5003385;28;20133;-72
2023/06/06 04:23:47;;;;;;;5.97;2.80;;;11.50;99.90;;;;;;5002456;28;20120;-72
2023/06/06 04:26:27;;;;;;;10.20;2.10;;;11.50;99.90;;;;;;5007820;28;20030;-71
2023/06/06 04:28:53;;;;;;;4.70;2.08;;;11.60;99.90;;;;;;4991519;28;20037;-72
2023/06/06 04:31:23;;;;;;;6.07;1.80;;;11.60;99.90;;;;;;4998617;28;20022;-71
2023/06/06 04:33:53;;;;;;;11.57;2.22;;;11.70;99.90;;;;;;4993296;28;20053;-72
2023/06/06 04:36:19;;;;;;;14.27;3.35;;;11.70;99.90;;;;;;4996879;28;20056;-71
2023/06/06 04:38:49;;;;;;;12.60;3.47;;;11.70;99.90;;;;;;4997828;28;20030;-70
2023/06/06 04:41:20;;;;;;;11.30;2.00;;;11.80;99.90;;;;;;4998003;28;20034;-71
2023/06/06 04:43:49;;;;;;;6.03;2.03;;;11.80;99.90;;;;;;5000961;28;20057;-74
2023/06/06 04:46:21;;;;;;;9.73;2.55;;;11.90;99.90;;;;;;4999277;28;20102;-72
2023/06/06 04:48:53;;;;;;;3.75;2.05;;;11.90;99.90;;;;;;4991120;28;20072;-72
2023/06/06 04:51:29;;;;;;;16.45;2.63;;;12.00;99.90;;;;;;4996948;28;20117;-71
2023/06/06 04:54:07;;;;;;;4.88;2.15;;;12.00;99.90;;;;;;5001938;28;20042;-71
2023/06/06 04:56:34;;;;;;;5.22;2.47;;;12.10;99.90;;;;;;5001366;28;20045;-71
2023/06/06 04:59:06;;;;;;;7.25;2.30;;;12.10;99.90;;;;;;5005545;28;20033;-71
2023/06/06 05:01:36;;;;;;;5.30;1.58;;;12.10;99.90;;;;;;5004208;28;20073;-71
2023/06/06 05:04:03;;;;;;;9.75;2.38;;;12.10;99.90;;;;;;5003525;28;20064;-72
2023/06/06 05:06:31;;;;;;;9.77;2.40;;;12.20;99.90;;;;;;5001737;28;20050;-71
2023/06/06 05:09:07;;;;;;;10.13;1.90;;;12.20;99.90;;;;;;5003370;28;20088;-72
2023/06/06 05:11:33;;;;;;;8.52;2.28;;;12.30;99.90;;;;;;5005356;28;20794;-72
2023/06/06 05:13:59;;;;;;;9.45;1.95;;;12.30;99.90;;;;;;5003977;28;20451;-72
2023/06/06 05:16:25;;;;;;;8.55;2.35;;;12.40;99.90;;;;;;5002752;28;20075;-70
2023/06/06 05:18:51;;;;;;;6.68;1.90;;;12.50;99.90;;;;;;5001708;28;20038;-70
2023/06/06 05:21:18;;;;;;;8.65;2.15;;;12.50;99.90;;;;;;5001509;28;20048;-71
2023/06/06 05:23:44;;;;;;;7.28;2.55;;;12.60;99.90;;;;;;5002848;28;20029;-72
2023/06/06 05:26:10;;;;;;;6.55;2.28;;;12.60;99.90;;;;;;5005927;28;20052;-70
2023/06/06 05:28:37;;;;;;;5.90;2.15;;;12.80;99.90;;;;;;5003736;28;20034;-72
2023/06/06 05:31:03;;;;;;;8.30;2.00;;;12.90;99.90;;;;;;5005557;28;20072;-71
2023/06/06 05:33:30;;;;;;;5.60;2.13;;;12.90;99.90;;;;;;5003397;28;20034;-71
2023/06/06 05:36:00;;;;;;;4.90;1.80;;;13.00;99.90;;;;;;5005506;28;20109;-71
2023/06/06 05:38:26;;;;;;;5.07;1.95;;;13.20;99.90;;;;;;5003063;28;20437;-71
2023/06/06 05:40:52;;;;;;;8.98;2.85;;;13.40;99.90;;;;;;5002592;28;20022;-71
2023/06/06 05:43:17;;;;;;;4.38;1.50;;;13.70;99.90;;;;;;5000244;28;20057;-72
2023/06/06 05:45:43;;;;;;;6.32;2.13;;;13.90;99.90;;;;;;5004855;28;20038;-73
2023/06/06 05:48:08;;;;;;;10.63;2.80;;;14.20;99.90;;;;;;5000454;28;20053;-71
2023/06/06 05:50:34;;;;;;;6.95;1.92;;;14.60;99.90;;;;;;5004696;28;20049;-72
2023/06/06 05:53:02;;;;;;;6.28;2.08;;;15.10;99.90;;;;;;5000764;28;20162;-71
2023/06/06 05:55:35;;;;;;;6.15;1.95;;;15.50;99.90;;;;;;5002134;28;20758;-71
2023/06/06 05:58:03;;;;;;;4.03;1.80;;;15.80;99.90;;;;;;4998885;28;20465;-72
2023/06/06 06:00:30;;;;;;;8.48;2.08;;;16.00;99.90;;;;;;5004017;28;20041;-73
2023/06/06 06:02:57;;;;;;;6.85;1.77;;;16.20;99.90;;;;;;5003902;28;20034;-72
2023/06/06 06:05:28;;;;;;;5.15;2.00;;;16.30;99.90;;;;;;5001180;28;20165;-72
2023/06/06 06:07:54;;;;;;;3.72;1.58;;;16.40;99.90;;;;;;5002190;28;20045;-73
2023/06/06 06:10:21;;;;;;;3.17;1.80;;;16.50;99.90;;;;;;5003646;28;20034;-72
2023/06/06 06:12:46;;;;;;;4.10;1.30;;;16.70;99.90;;;;;;5002072;28;20045;-70
2023/06/06 06:15:12;;;;;;;7.45;1.92;;;16.80;99.90;;;;;;5002082;28;20034;-71
2023/06/06 06:17:41;;;;;;;4.25;1.65;;;16.80;99.90;;;;;;5002724;28;20041;-71
2023/06/06 06:20:10;;;;;;;5.13;1.40;;;16.80;99.90;;;;;;5003879;28;20034;-72
2023/06/06 06:22:36;;;;;;;5.32;2.00;;;16.90;99.90;;;;;;5004056;28;20073;-72
2023/06/06 06:25:03;;;;;;;4.30;1.38;;;17.00;99.90;;;;;;5001860;28;20064;-72
2023/06/06 06:27:30;;;;;;;6.10;1.58;;;17.20;99.90;;;;;;5001617;28;20564;-70
2023/06/06 06:29:56;;;;;;;6.05;1.65;;;17.30;99.90;;;;;;5005440;28;20517;-71
2023/06/06 06:32:22;;;;;;;3.20;1.27;;;17.50;99.90;;;;;;5003523;28;20061;-71
2023/06/06 06:34:48;;;;;;;13.00;1.77;;;17.70;99.90;;;;;;5001334;28;20034;-71
2023/06/06 06:37:13;;;;;;;4.95;1.63;;;18.10;99.90;;;;;;5003347;28;20038;-71
2023/06/06 06:39:39;;;;;;;4.88;1.30;;;18.50;99.90;;;;;;5002879;28;20034;-71
2023/06/06 06:42:07;;;;;;;12.80;1.90;;;19.20;99.90;;;;;;5000764;28;20383;-72
2023/06/06 06:44:32;;;;;;;4.72;1.55;;;19.90;99.30;;;;;;5001520;28;20038;-71
2023/06/06 06:47:04;;;;;;;3.35;1.17;;;20.40;98.80;;;;;;5007359;28;20032;-72
2023/06/06 06:49:29;;;;;;;6.78;1.70;;;21.10;97.80;;;;;;5007027;28;20111;-72
2023/06/06 06:51:56;;;;;;;6.05;1.30;;;21.60;96.40;;;;;;5002596;28;20030;-72
2023/06/06 06:54:24;;;;;;;4.55;1.60;;;22.10;95.90;;;;;;5004509;28;20050;-72
2023/06/06 06:56:53;;;;;;;4.32;2.00;;;22.80;95.30;;;;;;5006981;28;20045;-72
2023/06/06 06:59:22;;;;;;;5.15;1.63;;;23.50;94.00;;;;;;5002899;28;20038;-73
2023/06/06 07:01:49;;;;;;;4.22;1.45;;;23.90;92.50;;;;;;5004833;28;20065;-71
2023/06/06 07:04:17;;;;;;;7.05;1.70;;;24.30;93.20;;;;;;5005201;28;20030;-72
2023/06/06 07:06:44;;;;;;;6.43;2.35;;;24.20;91.70;;;;;;5014603;28;20034;-72
2023/06/06 07:09:09;;;;;;;3.45;2.13;;;24.80;91.80;;;;;;5018461;28;20137;-72
2023/06/06 07:11:35;;;;;;;8.32;2.38;;;25.20;91.60;;;;;;5009286;28;20120;-70
2023/06/06 07:14:00;;;;;;;6.95;2.22;;;25.20;91.30;;;;;;5006202;28;20072;-71
2023/06/06 07:16:26;;;;;;;6.13;1.92;;;25.50;90.40;;;;;;5003690;28;20037;-71
2023/06/06 07:18:54;;;;;;;4.72;2.03;;;25.80;90.60;;;;;;5001647;28;20443;-72
2023/06/06 07:21:21;;;;;;;5.90;2.03;;;26.80;89.10;;;;;;4998399;28;20037;-73
2023/06/06 07:23:49;;;;;;;5.60;2.08;;;27.20;87.30;;;;;;5004182;28;20038;-72
2023/06/06 07:26:19;;;;;;;4.15;1.90;;;27.20;86.50;;;;;;5003659;28;20482;-73
2023/06/06 07:28:45;;;;;;;;;;;27.10;85.40;;;;;;5004459;28;20629;-72
2023/06/06 07:31:11;;;;;;;7.78;2.15;;;26.40;85.50;;;;;;5005017;28;19917;-71
2023/06/06 07:33:36;;;;;;;6.80;2.15;;;26.40;86.20;;;;;;5003829;28;20080;-73
2023/06/06 07:36:03;;;;;;;5.15;2.20;;;26.70;87.80;;;;;;5002251;28;20037;-72
2023/06/06 07:38:32;;;;;;;5.68;1.95;;;27.20;85.90;;;;;;5004593;28;20061;-72
2023/06/06 07:40:58;;;;;;;8.80;1.98;;;27.40;84.50;;;;;;5003119;28;20407;-72
2023/06/06 07:43:26;;;;;;;7.45;2.00;;;27.20;84.00;;;;;;5032774;28;20048;-72
2023/06/06 07:45:55;;;;;;;3.87;1.63;;;27.30;84.10;;;;;;5011600;28;20122;-72
2023/06/06 07:48:23;;;;;;;5.85;1.85;;;27.60;83.90;;;;;;5005716;28;20036;-72
2023/06/06 07:50:49;;;;;;;5.10;1.98;;;27.40;83.90;;;;;;5003042;28;20084;-72
2023/06/06 07:53:16;;;;;;;8.20;2.13;;;27.70;83.40;;;;;;5007091;28;20618;-72
2023/06/06 07:55:43;;;;;;;7.10;1.90;;;27.40;82.30;;;;;;5005446;28;20053;-71
2023/06/06 07:58:11;;;;;;;9.45;2.47;;;27.20;82.30;;;;;;5005817;28;20117;-71
2023/06/06 08:00:38;;;;;;;5.18;2.30;;;26.60;83.70;;;;;;5005063;28;20049;-73
2023/06/06 08:03:04;;;;;;;4.63;2.28;;;26.90;83.30;;;;;;5010271;28;20049;-72
2023/06/06 08:05:34;;;;;;;5.03;2.00;;;27.00;84.00;;;;;;5021244;28;20045;-71
2023/06/06 08:08:00;;;;;;;5.15;1.90;;;26.70;83.20;;;;;;5007272;28;20034;-72
2023/06/06 08:10:26;;;;;;;6.78;2.10;;;26.70;84.10;;;;;;5005975;28;20034;-71
2023/06/06 08:12:54;;;;;;;4.72;1.95;;;26.70;83.60;;;;;;5006031;28;20065;-72
2023/06/06 08:15:21;;;;;;;3.95;1.73;;;25.90;84.20;;;;;;5003683;28;20038;-72
2023/06/06 08:17:47;;;;;;;4.78;1.80;;;25.70;84.50;;;;;;5006195;28;20035;-71
2023/06/06 08:20:13;;;;;;;4.05;1.45;;;24.90;85.70;;;;;;5002406;28;20041;-74
2023/06/06 08:22:48;;;;;;;4.00;1.33;;;24.30;87.80;;;;;;5004913;28;20046;-71
2023/06/06 08:25:13;;;;;;;2.70;0.98;;;23.80;88.70;;;;;;4999530;28;20034;-73
2023/06/06 08:27:40;;;;;;;4.93;1.30;;;23.50;89.70;;;;;;5003680;28;20802;-71
2023/06/06 08:30:06;;;;;;;9.18;1.42;;;23.00;90.60;;;;;;5005575;28;20757;-71
2023/06/06 08:32:33;;;;;;;2.67;1.13;;;22.60;91.50;;;;;;5004652;28;20052;-71
2023/06/06 08:34:58;;;;;;;3.33;1.27;;;22.50;91.70;;;;;;5006253;28;20042;-73
2023/06/06 08:37:24;;;;;;;4.85;1.48;;;22.30;91.60;;;;;;5006900;28;20042;-71
2023/06/06 08:39:50;;;;;;;5.40;1.60;;;22.20;92.00;;;;;;5004442;28;20033;-71
2023/06/06 08:42:20;;;;;;;2.80;1.30;;;21.90;92.20;;;;;;5002836;28;20248;-71
2023/06/06 08:44:46;;;;;;;3.85;1.50;;;21.70;92.80;;;;;;5002725;28;20034;-72
2023/06/06 08:47:16;;;;;;;4.65;1.25;;;21.70;92.50;;;;;;5004631;28;20506;-72
2023/06/06 08:49:42;;;;;;;4.28;1.27;;;21.60;93.10;;;;;;5001109;28;20034;-73
2023/06/06 08:52:09;;;;;;;6.15;1.40;;;21.60;93.30;;;;;;5002840;28;20037;-73
2023/06/06 08:54:36;;;;;;;1.73;0.93;;;21.60;93.20;;;;;;5003548;28;20033;-72
2023/06/06 08:57:08;;;;;;;4.10;1.20;;;21.70;93.30;;;;;;5000629;28;20133;-73
2023/06/06 08:59:37;;;;;;;3.40;1.30;;;21.60;92.90;;;;;;5000829;28;20550;-71
2023/06/06 09:02:06;;;;;;;5.20;0.90;;;21.40;93.30;;;;;;5003398;28;20752;-72
2023/06/06 09:04:36;;;;;;;8.75;1.80;;;21.30;93.60;;;;;;5004819;28;20848;-72
2023/06/06 09:07:11;;;;;;;5.22;1.20;;;21.00;93.70;;;;;;5002835;28;20501;-72
2023/06/06 09:09:42;;;;;;;5.72;1.55;;;21.00;93.70;;;;;;4998130;28;20045;-71
2023/06/06 09:12:11;;;;;;;4.22;1.13;;;21.10;94.00;;;;;;4999431;28;20060;-72
2023/06/06 09:14:37;;;;;;;5.57;1.98;;;21.20;94.00;;;;;;5001989;28;20123;-72
2023/06/06 09:17:05;;;;;;;3.35;1.10;;;21.30;94.30;;;;;;5001669;28;20069;-73
2023/06/06 09:19:37;;;;;;;7.28;1.85;;;21.30;94.20;;;;;;5000724;28;20042;-71
2023/06/06 09:22:07;;;;;;;7.18;2.17;;;21.40;94.40;;;;;;5004364;28;20099;-72
2023/06/06 09:24:32;;;;;;;6.00;1.60;;;21.50;94.60;;;;;;5004974;28;20052;-71
2023/06/06 09:26:58;;;;;;;8.05;1.73;;;21.50;94.50;;;;;;5003718;28;20042;-72
2023/06/06 09:29:27;;;;;;;8.10;1.95;;;21.50;94.30;;;;;;5002775;28;20038;-72
2023/06/06 09:31:52;;;;;;;4.28;1.88;;;21.30;94.20;;;;;;5004799;28;20037;-71
2023/06/06 09:34:25;;;;;;;4.22;1.60;;;21.20;94.30;;;;;;5005397;28;20765;-72
2023/06/06 09:36:54;;;;;;;6.40;2.22;;;21.20;94.40;;;;;;5001228;28;20045;-71
2023/06/06 09:39:19;;;;;;;4.82;1.80;;;21.30;94.60;;;;;;5002451;28;20514;-73
2023/06/06 09:41:48;;;;;;;6.20;1.55;;;21.50;94.60;;;;;;5004699;28;20033;-72
2023/06/06 09:44:28;;;;;;;3.15;1.15;;;21.60;94.40;;;;;;5000889;28;20092;-72
2023/06/06 09:47:03;;;;;;;3.03;1.73;;;21.70;94.00;;;;;;5020592;28;20037;-72
2023/06/06 09:49:36;;;;;;;8.38;1.70;;;21.60;94.10;;;;;;5003142;28;20057;-71
2023/06/06 09:52:13;;;;;;;5.95;1.95;;;21.60;94.20;;;;;;5001442;28;20050;-71
2023/06/06 09:54:43;;;;;;;9.63;1.70;;;21.60;94.30;;;;;;5004815;28;20041;-71
2023/06/06 09:57:13;;;;;;;4.78;1.67;;;21.70;94.30;;;;;;5000674;28;20140;-71
2023/06/06 09:59:43;;;;;;;4.32;1.75;;;21.70;94.40;;;;;;5003446;28;20030;-71
2023/06/06 10:02:10;;;;;;;7.10;1.92;;;21.80;94.20;;;;;;5004527;28;20040;-70
2023/06/06 10:04:36;;;;;;;6.88;2.10;;;21.80;94.20;;;;;;5018160;28;20046;-71
2023/06/06 10:07:03;;;;;;;3.45;1.17;;;21.80;94.20;;;;;;5000519;28;20092;-71
2023/06/06 10:09:29;;;;;;;7.80;1.48;;;21.70;94.00;;;;;;5001957;28;20065;-72
2023/06/06 10:11:55;;;;;;;7.90;2.25;;;21.60;94.70;;;;;;5002041;28;20038;-70
2023/06/06 10:14:21;;;;;;;6.78;2.63;;;21.70;94.30;;;;;;5001774;28;20041;-71
2023/06/06 10:16:47;;;;;;;11.13;2.28;;;21.70;94.30;;;;;;5000520;28;20409;-71
2023/06/06 10:19:13;;;;;;;9.13;2.45;;;21.70;94.20;;;;;;5003595;28;20030;-71
2023/06/06 10:21:40;;;;;;;5.00;1.80;;;21.90;94.60;;;;;;5007372;28;20045;-71
2023/06/06 10:24:06;;;;;;;8.82;2.05;;;22.00;94.10;;;;;;5001457;28;20026;-72
2023/06/06 10:26:38;;;;;;;6.30;1.92;;;21.90;93.90;;;;;;5006078;28;20037;-71
2023/06/06 10:29:11;;;;;;;7.88;2.20;;;21.90;94.00;;;;;;5005626;28;20427;-70
2023/06/06 10:31:52;;;;;;;5.45;1.65;;;21.80;94.10;;;;;;5004134;28;20036;-71
2023/06/06 10:34:23;;;;;;;8.45;2.40;;;21.90;94.30;;;;;;5005875;28;20132;-72
2023/06/06 10:36:48;;;;;;;6.35;2.08;;;21.90;94.10;;;;;;5006291;28;20129;-73
2023/06/06 10:39:29;;;;;;;4.95;1.83;;;21.80;94.10;;;;;;5004275;28;20136;-71
2023/06/06 10:42:06;;;;;;;9.68;2.08;;;21.90;94.30;;;;;;5022736;28;20053;-72
2023/06/06 10:44:43;;;;;;;6.75;1.80;;;21.90;94.20;;;;;;5007265;28;20034;-70
2023/06/06 10:47:21;;;;;;;8.05;2.10;;;21.90;93.80;;;;;;5006664;28;20065;-72
2023/06/06 10:50:09;;;;;;;3.05;1.63;;;21.90;94.10;;;;;;5025402;28;20034;-71
2023/06/06 10:52:43;;;;;;;5.18;1.75;;;21.80;94.40;;;;;;5006627;28;20038;-72
2023/06/06 10:55:24;;;;;;;6.68;2.70;;;21.90;94.40;;;;;;5005967;28;20482;-71
2023/06/06 10:57:54;;;;;;;6.30;1.80;;;21.90;94.10;;;;;;4998571;28;20030;-72
2023/06/06 11:00:24;;;;;;;4.53;1.65;;;21.90;93.70;;;;;;5004145;28;20067;-70
2023/06/06 11:02:51;;;;;;;3.88;1.67;;;22.00;94.30;;;;;;5003669;28;20041;-72
2023/06/06 11:05:18;;;;;;;7.72;1.90;;;22.00;94.00;;;;;;5004421;28;20114;-71
2023/06/06 11:07:49;;;;;;;6.30;2.15;;;22.00;94.20;;;;;;5003534;28;20033;-70
2023/06/06 11:10:19;;;;;;;3.58;1.73;;;22.10;94.10;;;;;;4999955;28;20029;-70
2023/06/06 11:12:50;;;;;;;5.18;1.40;;;22.10;93.90;;;;;;5002295;28;20045;-70
2023/06/06 11:15:30;;;;;;;13.00;2.33;;;22.20;93.70;;;;;;5000997;28;20048;-70
2023/06/06 11:18:04;;;;;;;5.18;1.42;;;22.20;94.00;;;;;;5000365;28;20399;-71
2023/06/06 11:20:38;;;;;;;5.43;1.70;;;22.10;93.80;;;;;;5001473;28;20451;-71
2023/06/06 11:23:05;;;;;;;8.18;2.72;;;22.00;94.00;;;;;;5001476;28;20034;-72
2023/06/06 11:25:37;;;;;;;7.97;1.95;;;21.90;94.30;;;;;;5004525;28;20518;-72
2023/06/06 11:28:03;;;;;;;8.45;2.17;;;22.00;94.60;;;;;;5002796;28;20042;-71
2023/06/06 11:30:36;;;;;;;5.70;1.67;;;22.10;94.10;;;;;;5004201;28;20030;-70
2023/06/06 11:33:09;;;;;;;6.00;1.92;;;22.10;94.30;;;;;;5004000;28;20042;-72
2023/06/06 11:35:38;;;;;;;4.53;1.80;;;22.00;94.30;;;;;;5008675;28;20041;-70
2023/06/06 11:38:07;;;;;;;10.65;2.13;;;22.10;94.70;;;;;;5005419;28;20045;-71
2023/06/06 11:40:36;;;;;;;6.20;2.30;;;22.10;94.50;;;;;;5003590;28;21038;-71
2023/06/06 11:43:05;;;;;;;4.55;1.63;;;22.10;94.40;;;;;;5003681;28;20042;-71
2023/06/06 11:45:31;;;;;;;7.57;2.50;;;22.20;94.40;;;;;;5005102;28;20180;-71
2023/06/06 11:47:57;;;;;;;7.60;2.03;;;22.20;94.00;;;;;;5001563;28;20511;-71
2023/06/06 11:50:29;;;;;;;6.93;1.95;;;22.20;94.50;;;;;;5002403;28;20120;-71
2023/06/06 11:52:55;;;;;;;5.13;1.80;;;22.30;94.50;;;;;;5002973;28;20042;-72
2023/06/06 11:55:38;;;;;;;4.57;1.77;;;22.20;94.60;;;;;;5006410;28;20040;-71
2023/06/06 11:58:09;;;;;;;5.47;1.83;;;22.20;94.30;;;;;;5004360;28;20052;-70
2023/06/06 12:00:35;;;;;;;7.50;2.05;;;22.20;94.70;;;;;;5004501;28;20033;-70
2023/06/06 12:03:01;;;;;;;6.05;1.88;;;22.10;94.40;;;;;;5005087;28;20038;-71
2023/06/06 12:05:28;;;;;;;4.72;2.25;;;22.00;94.60;;;;;;5000473;28;20599;-71
2023/06/06 12:07:58;;;;;;;6.68;2.13;;;22.10;94.70;;;;;;5002605;28;20044;-71
2023/06/06 12:10:28;;;;;;;;;;;22.10;94.80;;;;;;5005080;28;20498;-71
2023/06/06 12:12:54;;;;;;;3.88;1.60;;;22.00;94.60;;;;;;5005624;28;19917;-71
2023/06/06 12:15:21;;;;;;;11.63;2.25;;;22.10;95.00;;;;;;5003035;28;20029;-70
2023/06/06 12:17:46;;;;;;;8.65;2.17;;;22.10;94.80;;;;;;5003630;28;20034;-71
2023/06/06 12:20:24;;;;;;;4.95;1.83;;;21.90;94.70;;;;;;5005224;28;20030;-70
2023/06/06 12:22:51;;;;;;;11.13;2.25;;;22.00;95.00;;;;;;5002209;28;20065;-70
2023/06/06 12:25:27;;;;;;;5.40;2.10;;;22.00;95.10;;;;;;5005492;28;20033;-70
2023/06/06 12:27:53;;;;;;;10.38;2.47;;;22.00;94.90;;;;;;5001150;28;20096;-72
2023/06/06 12:30:30;;;;;;;3.63;1.77;;;22.10;95.10;;;;;;5004315;28;20036;-72
2023/06/06 12:32:57;;;;;;;6.10;2.13;;;22.20;94.70;;;;;;5004414;28;20041;-71
2023/06/06 12:35:23;;;;;;;4.68;1.55;;;22.10;94.90;;;;;;5002537;28;20037;-72
2023/06/06 12:37:48;;;;;;;5.90;2.40;;;22.10;94.90;;;;;;5004307;28;20038;-72
2023/06/06 12:40:18;;;;;;;6.75;2.35;;;22.10;94.70;;;;;;5003314;28;20530;-72
2023/06/06 12:42:58;;;;;;;5.65;2.55;;;22.10;94.90;;;;;;5002426;28;20088;-71
2023/06/06 12:45:25;;;;;;;3.92;2.05;;;22.10;94.60;;;;;;5002317;28;20570;-71
2023/06/06 12:47:52;;;;;;;4.65;1.75;;;22.00;94.80;;;;;;5004780;28;20514;-73
2023/06/06 12:50:19;;;;;;;5.38;1.60;;;22.00;94.90;;;;;;5001636;28;20038;-71
2023/06/06 12:52:44;;;;;;;6.40;1.77;;;22.10;95.30;;;;;;5004006;28;20033;-71
2023/06/06 12:55:10;;;;;;;4.53;1.63;;;22.00;95.10;;;;;;5003745;28;20030;-71